Time;durP1;ratioP1;P1;durP2;ratioP2;P2;SDS_P1;SDS_P2;PMS_P1;PMS_P2;Temp;Humidity;BMP_temperature;BMP_pressure;BME280_temperature;BME280_humidity;BME280_pressure;Samples;Min_cycle;Max_cycle;Signal;HPM_P1;HPM_P2
2021/06/20 00:01:38;;;;;;;14.93;13.43;;;24.90;99.90;;;;;;4995255;28;20454;-58
2021/06/20 00:04:05;;;;;;;24.27;14.60;;;24.90;99.90;;;;;;4995669;28;20450;-58
2021/06/20 00:06:37;;;;;;;17.23;15.20;;;24.90;99.90;;;;;;4995560;28;21038;-57
2021/06/20 00:09:06;;;;;;;15.20;13.60;;;24.90;99.90;;;;;;4994838;28;20536;-59
2021/06/20 00:11:34;;;;;;;17.90;16.10;;;24.90;99.90;;;;;;4990918;28;20454;-58
2021/06/20 00:14:01;;;;;;;17.80;16.00;;;24.90;99.90;;;;;;4995456;28;20450;-58
2021/06/20 00:16:29;;;;;;;19.63;15.70;;;24.80;99.90;;;;;;4994892;28;20470;-58
2021/06/20 00:18:57;;;;;;;16.93;15.30;;;24.80;99.90;;;;;;4995077;28;21023;-59
2021/06/20 00:21:25;;;;;;;18.53;15.90;;;24.70;99.90;;;;;;4995186;28;20446;-59
2021/06/20 00:23:53;;;;;;;20.23;17.00;;;24.60;99.90;;;;;;4994924;28;20461;-58
2021/06/20 00:26:20;;;;;;;23.23;17.80;;;24.50;99.90;;;;;;4995421;28;21062;-58
2021/06/20 00:28:47;;;;;;;19.27;16.67;;;24.40;99.90;;;;;;4994683;28;21011;-58
2021/06/20 00:31:15;;;;;;;20.17;17.47;;;24.40;99.90;;;;;;4994970;28;20587;-58
2021/06/20 00:33:42;;;;;;;18.17;16.30;;;24.40;99.90;;;;;;4995057;28;20450;-58
2021/06/20 00:36:11;;;;;;;19.43;17.40;;;24.40;99.90;;;;;;4994676;28;20558;-58
2021/06/20 00:38:39;;;;;;;21.23;18.97;;;24.40;99.90;;;;;;4994855;28;20450;-59
2021/06/20 00:41:06;;;;;;;20.27;18.17;;;24.40;99.90;;;;;;4994492;28;20978;-58
2021/06/20 00:43:33;;;;;;;21.60;17.30;;;24.30;99.90;;;;;;4994712;28;20458;-58
2021/06/20 00:46:00;;;;;;;19.50;17.50;;;24.40;99.90;;;;;;4994688;28;20908;-58
2021/06/20 00:48:27;;;;;;;23.83;18.37;;;24.40;99.90;;;;;;4994895;28;20555;-58
2021/06/20 00:50:54;;;;;;;24.90;17.40;;;24.30;99.90;;;;;;4993686;28;20477;-57
2021/06/20 00:53:23;;;;;;;20.57;18.07;;;24.20;99.90;;;;;;4994528;28;20948;-56
2021/06/20 00:55:50;;;;;;;22.03;16.80;;;24.20;99.90;;;;;;4994267;28;20536;-56
2021/06/20 00:58:20;;;;;;;24.23;19.00;;;24.10;99.90;;;;;;4994437;28;20446;-56
2021/06/20 01:00:47;;;;;;;20.90;18.57;;;24.20;99.90;;;;;;4994563;28;20451;-56
2021/06/20 01:03:33;;;;;;;20.87;18.50;;;24.20;99.90;;;;;;4994451;28;20504;-58
2021/06/20 01:06:01;;;;;;;25.07;18.33;;;24.20;99.90;;;;;;4994294;28;20478;-58
2021/06/20 01:08:29;;;;;;;27.67;18.63;;;24.10;99.90;;;;;;4994189;28;20514;-58
2021/06/20 01:10:56;;;;;;;21.03;17.17;;;24.00;99.90;;;;;;4994373;28;20455;-56
2021/06/20 01:13:23;;;;;;;22.33;17.30;;;24.00;99.90;;;;;;4994227;28;20508;-57
2021/06/20 01:15:51;;;;;;;20.53;17.20;;;24.10;99.90;;;;;;4994231;28;20474;-56
2021/06/20 01:18:20;;;;;;;23.43;16.67;;;24.00;99.90;;;;;;4994282;28;20454;-56
2021/06/20 01:20:47;;;;;;;18.90;16.10;;;23.90;99.90;;;;;;4993560;28;20454;-56
2021/06/20 01:23:16;;;;;;;20.53;16.13;;;23.90;99.90;;;;;;4993833;28;20446;-56
2021/06/20 01:25:44;;;;;;;17.90;16.00;;;23.90;99.90;;;;;;4994061;28;20521;-58
2021/06/20 01:28:12;;;;;;;20.83;16.67;;;24.00;99.90;;;;;;4994041;28;20482;-58
2021/06/20 01:30:44;;;;;;;16.80;14.53;;;23.90;99.90;;;;;;4994391;28;20832;-59
2021/06/20 01:33:12;;;;;;;17.43;15.63;;;23.90;99.90;;;;;;4993996;28;20450;-58
2021/06/20 01:35:40;;;;;;;21.17;17.17;;;23.90;99.90;;;;;;4993707;28;20625;-57
2021/06/20 01:38:10;;;;;;;18.30;15.30;;;23.90;99.90;;;;;;4993768;28;20450;-56
2021/06/20 01:40:38;;;;;;;17.87;15.23;;;23.80;99.90;;;;;;4993970;28;20478;-56
2021/06/20 01:43:05;;;;;;;19.77;16.30;;;23.70;99.90;;;;;;4993139;28;20493;-56
2021/06/20 01:45:33;;;;;;;23.23;15.40;;;23.50;99.90;;;;;;4993759;28;20991;-56
2021/06/20 01:48:00;;;;;;;21.90;16.10;;;23.50;99.90;;;;;;4993683;28;20485;-56
2021/06/20 01:50:28;;;;;;;21.63;15.67;;;23.50;99.90;;;;;;4993066;28;20458;-57
2021/06/20 01:53:07;;;;;;;19.60;16.80;;;23.40;99.90;;;;;;4993522;28;20450;-56
2021/06/20 01:55:35;;;;;;;18.33;15.60;;;23.40;99.90;;;;;;4993487;28;20490;-58
2021/06/20 01:58:05;;;;;;;22.70;15.70;;;23.40;99.90;;;;;;4993224;28;20443;-58
2021/06/20 02:00:32;;;;;;;21.13;14.10;;;23.50;99.90;;;;;;4993906;28;20447;-57
2021/06/20 02:03:06;;;;;;;22.87;13.20;;;23.40;99.90;;;;;;4993243;28;20956;-56
2021/06/20 02:05:34;;;;;;;21.17;13.10;;;23.50;99.90;;;;;;4992974;28;20988;-56
2021/06/20 02:08:01;;;;;;;20.47;12.80;;;23.40;99.90;;;;;;4992022;28;20490;-57
2021/06/20 02:10:28;;;;;;;21.90;13.07;;;23.40;99.90;;;;;;4993113;28;20459;-56
2021/06/20 02:12:55;;;;;;;17.57;13.37;;;23.40;99.90;;;;;;4992517;28;20450;-57
2021/06/20 02:15:23;;;;;;;22.50;12.07;;;23.40;99.90;;;;;;4993302;28;20992;-56
2021/06/20 02:17:51;;;;;;;25.67;12.17;;;23.30;99.90;;;;;;4993107;28;20450;-56
2021/06/20 02:20:20;;;;;;;23.87;13.27;;;23.20;99.90;;;;;;4992964;28;20520;-56
2021/06/20 02:22:50;;;;;;;18.43;13.33;;;23.10;99.90;;;;;;4992478;28;20451;-56
2021/06/20 02:25:18;;;;;;;21.07;12.20;;;22.90;99.90;;;;;;4992920;28;20481;-56
2021/06/20 02:27:47;;;;;;;20.00;12.23;;;22.90;99.90;;;;;;4992578;28;20921;-56
2021/06/20 02:30:16;;;;;;;18.00;12.00;;;22.80;99.90;;;;;;4993079;28;20450;-56
2021/06/20 02:32:45;;;;;;;18.03;11.83;;;22.90;99.90;;;;;;4992667;28;20903;-56
2021/06/20 02:35:14;;;;;;;25.13;10.77;;;22.90;99.90;;;;;;4992614;28;20474;-56
2021/06/20 02:37:42;;;;;;;18.80;11.10;;;22.90;99.90;;;;;;4992629;28;20454;-56
2021/06/20 02:40:11;;;;;;;16.53;11.17;;;23.00;99.90;;;;;;4992477;28;20458;-56
2021/06/20 02:42:39;;;;;;;17.77;12.40;;;23.10;99.90;;;;;;4991998;28;20454;-56
2021/06/20 02:45:09;;;;;;;17.27;12.20;;;23.20;99.90;;;;;;4992676;28;20478;-56
2021/06/20 02:47:36;;;;;;;14.53;10.83;;;23.30;99.90;;;;;;4992278;28;21074;-56
2021/06/20 02:50:05;;;;;;;64.97;12.00;;;23.50;99.90;;;;;;4992488;28;20500;-56
2021/06/20 02:52:32;;;;;;;19.77;9.33;;;23.60;99.90;;;;;;4992404;28;20488;-58
2021/06/20 02:55:01;;;;;;;17.77;7.87;;;23.80;99.90;;;;;;4991929;28;20513;-59
2021/06/20 02:57:30;;;;;;;14.00;9.77;;;23.80;99.90;;;;;;5031442;22;20501;-52
2021/06/20 03:00:01;;;;;;;25.60;10.80;;;23.90;99.90;;;;;;5012040;28;20862;-53
2021/06/20 03:02:28;;;;;;;18.97;10.67;;;24.00;99.90;;;;;;5012055;28;20449;-53
2021/06/20 03:04:55;;;;;;;18.00;10.57;;;24.20;99.90;;;;;;5011992;28;20870;-53
2021/06/20 03:07:24;;;;;;;19.40;11.50;;;24.30;99.90;;;;;;5012036;28;20504;-53
2021/06/20 03:09:52;;;;;;;17.13;12.30;;;24.40;99.90;;;;;;5005825;28;20548;-53
2021/06/20 03:12:19;;;;;;;19.83;12.67;;;24.40;99.90;;;;;;5000736;28;20457;-53
2021/06/20 03:14:47;;;;;;;23.97;12.00;;;24.30;99.90;;;;;;5011244;28;21018;-53
2021/06/20 03:17:15;;;;;;;18.57;13.60;;;24.20;99.90;;;;;;5011801;28;20898;-55
2021/06/20 03:19:43;;;;;;;23.70;13.10;;;24.40;99.90;;;;;;5011272;28;20453;-53
2021/06/20 03:22:10;;;;;;;19.03;13.23;;;24.10;99.90;;;;;;5011697;28;20445;-53
2021/06/20 03:24:40;;;;;;;22.13;12.40;;;23.90;99.90;;;;;;4992241;28;20463;-53
2021/06/20 03:27:08;;;;;;;18.20;10.83;;;23.90;99.90;;;;;;4992383;28;20478;-53
2021/06/20 03:29:35;;;;;;;22.53;11.60;;;23.90;99.90;;;;;;5005136;28;20477;-53
2021/06/20 03:32:02;;;;;;;22.50;11.60;;;23.90;99.90;;;;;;5011304;28;20457;-53
2021/06/20 03:34:31;;;;;;;19.83;12.00;;;23.90;99.90;;;;;;5011280;28;20450;-53
2021/06/20 03:36:58;;;;;;;21.03;10.90;;;23.70;99.90;;;;;;5011805;28;20991;-53
2021/06/20 03:39:25;;;;;;;14.93;10.53;;;23.70;99.90;;;;;;5011245;28;20963;-53
2021/06/20 03:41:53;;;;;;;28.47;11.87;;;23.90;99.90;;;;;;5011308;28;20456;-53
2021/06/20 03:44:20;;;;;;;23.53;11.27;;;23.90;99.90;;;;;;5011599;28;20948;-53
2021/06/20 03:46:47;;;;;;;17.30;10.60;;;23.80;99.90;;;;;;5011163;28;20991;-53
2021/06/20 03:49:14;;;;;;;16.33;10.30;;;23.90;99.90;;;;;;5011207;28;20531;-53
2021/06/20 03:51:41;;;;;;;24.63;11.20;;;24.00;99.90;;;;;;5010014;28;20445;-52
2021/06/20 03:54:08;;;;;;;18.20;10.00;;;24.00;99.90;;;;;;5011440;28;20462;-53
2021/06/20 03:56:36;;;;;;;21.37;8.70;;;23.90;99.90;;;;;;5001609;28;20486;-53
2021/06/20 03:59:08;;;;;;;11.77;7.10;;;24.00;99.90;;;;;;5004940;28;20905;-53
2021/06/20 04:01:37;;;;;;;16.60;6.80;;;24.10;99.90;;;;;;5010971;28;20453;-53
2021/06/20 04:07:17;;;;;;;23.70;7.57;;;24.00;99.90;;;;;;4949626;29;20461;-52
2021/06/20 04:09:45;;;;;;;13.73;7.20;;;24.00;99.90;;;;;;4949090;28;20550;-53
2021/06/20 04:12:13;;;;;;;12.23;5.70;;;23.90;99.90;;;;;;4952770;28;20516;-52
2021/06/20 04:14:43;;;;;;;10.50;5.40;;;23.70;99.90;;;;;;4991074;28;20959;-53
2021/06/20 04:17:11;;;;;;;10.57;4.63;;;23.70;99.90;;;;;;4992056;28;20549;-53
2021/06/20 04:19:38;;;;;;;11.30;4.27;;;23.80;99.90;;;;;;4998973;28;20524;-52
2021/06/20 04:22:06;;;;;;;13.20;4.80;;;24.00;99.90;;;;;;5008894;28;20449;-53
2021/06/20 04:24:33;;;;;;;12.30;4.63;;;24.00;99.90;;;;;;5009236;28;20476;-53
2021/06/20 04:27:00;;;;;;;15.23;4.50;;;23.60;99.90;;;;;;5008761;28;20500;-53
2021/06/20 04:29:27;;;;;;;11.57;4.57;;;23.50;99.90;;;;;;5008811;28;20478;-53
2021/06/20 04:31:55;;;;;;;9.30;4.20;;;23.60;99.90;;;;;;5009099;28;20449;-53
2021/06/20 04:34:22;;;;;;;9.57;3.70;;;23.50;99.90;;;;;;5009366;28;20438;-53
2021/06/20 04:36:49;;;;;;;13.50;4.40;;;23.60;99.90;;;;;;5011402;28;20458;-53
2021/06/20 04:39:16;;;;;;;9.57;3.60;;;23.70;99.90;;;;;;5010557;28;20442;-52
2021/06/20 04:41:44;;;;;;;6.27;3.20;;;23.80;99.90;;;;;;5012348;28;20445;-52
2021/06/20 04:46:52;;;;;;;7.40;3.27;;;23.80;99.90;;;;;;5003321;28;20450;-53
2021/06/20 04:49:20;;;;;;;9.17;3.20;;;23.70;99.90;;;;;;4999960;28;21052;-53
2021/06/20 04:51:48;;;;;;;9.73;3.47;;;23.60;99.90;;;;;;4992496;28;20455;-53
2021/06/20 04:54:15;;;;;;;8.10;3.50;;;23.50;99.90;;;;;;4992421;28;20453;-53
2021/06/20 04:56:43;;;;;;;6.00;2.67;;;23.40;99.90;;;;;;4992490;28;20474;-53
2021/06/20 04:59:11;;;;;;;7.03;3.03;;;23.40;99.90;;;;;;5003617;28;20477;-52
2021/06/20 05:01:39;;;;;;;4.77;2.70;;;23.30;99.90;;;;;;5009043;28;20454;-53
2021/06/20 05:04:07;;;;;;;9.33;3.07;;;23.40;99.90;;;;;;5012336;28;20491;-53
2021/06/20 05:06:36;;;;;;;8.50;3.40;;;23.30;99.90;;;;;;5012073;28;20531;-53
2021/06/20 05:09:04;;;;;;;7.87;2.73;;;23.40;99.90;;;;;;5011823;28;20866;-53
2021/06/20 05:11:31;;;;;;;11.00;3.07;;;23.30;99.90;;;;;;4993893;28;20489;-53
2021/06/20 05:13:58;;;;;;;8.87;2.97;;;23.30;99.90;;;;;;5005632;28;20450;-53
2021/06/20 05:16:25;;;;;;;6.37;2.97;;;23.30;99.90;;;;;;5006463;28;20524;-53
2021/06/20 05:18:52;;;;;;;5.30;2.80;;;23.20;99.90;;;;;;5005289;28;20450;-53
2021/06/20 05:21:19;;;;;;;5.10;2.10;;;23.20;99.90;;;;;;5007162;28;20963;-53
2021/06/20 05:23:48;;;;;;;6.17;2.37;;;23.10;99.90;;;;;;5000770;28;20454;-53
2021/06/20 05:26:15;;;;;;;7.80;2.73;;;23.20;99.90;;;;;;5012400;28;20473;-53
2021/06/20 05:28:42;;;;;;;11.07;2.87;;;23.40;99.90;;;;;;5004896;28;20490;-53
2021/06/20 05:31:09;;;;;;;4.30;2.30;;;23.50;99.90;;;;;;5008673;28;20526;-53
2021/06/20 05:33:36;;;;;;;10.27;3.00;;;23.60;99.90;;;;;;5005079;28;20520;-53
2021/06/20 05:36:03;;;;;;;10.43;3.20;;;23.50;99.90;;;;;;5007693;28;20461;-54
2021/06/20 05:38:30;;;;;;;6.83;2.50;;;23.50;99.90;;;;;;5010311;28;20963;-53
2021/06/20 05:41:00;;;;;;;7.40;2.57;;;23.50;99.90;;;;;;4994177;28;20550;-53
2021/06/20 05:43:27;;;;;;;6.45;2.60;;;23.60;99.90;;;;;;4991188;28;20456;-53
2021/06/20 05:45:54;;;;;;;8.47;3.10;;;23.60;99.90;;;;;;5003469;28;20222;-53
2021/06/20 05:48:21;;;;;;;4.67;2.80;;;23.60;99.90;;;;;;4998573;28;20525;-53
2021/06/20 05:50:49;;;;;;;9.70;3.37;;;23.80;99.90;;;;;;4993191;28;20875;-53
2021/06/20 05:53:16;;;;;;;7.67;2.43;;;23.90;99.90;;;;;;5005190;28;20476;-53
2021/06/20 05:55:43;;;;;;;8.83;2.80;;;24.00;99.90;;;;;;4994106;28;20567;-53
2021/06/20 05:58:12;;;;;;;7.00;2.43;;;24.10;99.90;;;;;;4994908;28;20459;-53
2021/06/20 06:00:39;;;;;;;8.43;3.17;;;24.20;99.90;;;;;;5012946;28;20515;-53
2021/06/20 06:03:07;;;;;;;4.90;2.47;;;24.20;99.90;;;;;;5012453;28;20450;-53
2021/06/20 06:05:34;;;;;;;5.40;3.00;;;24.20;99.90;;;;;;5012406;28;20454;-53
2021/06/20 06:08:01;;;;;;;4.43;2.73;;;24.40;99.90;;;;;;5012921;28;20527;-53
2021/06/20 06:10:30;;;;;;;5.40;2.30;;;24.30;99.90;;;;;;5012777;28;20572;-53
2021/06/20 06:12:57;;;;;;;8.83;3.03;;;24.30;99.90;;;;;;5012501;28;20450;-53
2021/06/20 06:15:26;;;;;;;8.10;2.50;;;24.30;99.90;;;;;;5010529;28;20500;-53
2021/06/20 06:17:53;;;;;;;7.40;2.10;;;24.40;99.90;;;;;;5010984;28;20886;-53
2021/06/20 06:20:21;;;;;;;8.20;2.20;;;24.30;99.90;;;;;;5010878;28;20528;-52
2021/06/20 06:22:49;;;;;;;4.70;2.33;;;24.40;99.90;;;;;;4998753;28;21003;-53
2021/06/20 06:25:16;;;;;;;5.30;2.30;;;24.60;99.90;;;;;;4994783;28;20449;-53
2021/06/20 06:27:44;;;;;;;4.60;2.10;;;24.70;99.90;;;;;;4998169;28;20466;-53
2021/06/20 06:30:12;;;;;;;7.23;3.07;;;25.00;99.90;;;;;;5010152;28;20532;-53
2021/06/20 06:32:43;;;;;;;4.30;2.37;;;25.20;99.90;;;;;;5010443;28;20940;-53
2021/06/20 06:35:10;;;;;;;5.90;3.00;;;25.50;99.90;;;;;;4994984;28;20535;-53
2021/06/20 06:37:38;;;;;;;5.30;2.60;;;26.00;99.90;;;;;;5010335;28;20466;-53
2021/06/20 06:40:07;;;;;;;6.17;2.43;;;26.50;99.90;;;;;;5001788;28;20528;-53
2021/06/20 06:42:34;;;;;;;6.47;2.43;;;27.00;99.90;;;;;;4991948;28;20501;-53
2021/06/20 06:45:01;;;;;;;6.00;2.70;;;26.90;99.90;;;;;;5006108;28;20446;-53
2021/06/20 06:47:29;;;;;;;8.23;2.40;;;27.00;99.90;;;;;;5010595;28;20474;-53
2021/06/20 06:49:57;;;;;;;6.40;2.50;;;26.70;99.90;;;;;;5008671;28;20481;-53
2021/06/20 06:52:24;;;;;;;8.13;2.17;;;26.30;99.90;;;;;;5010078;28;20449;-53
2021/06/20 06:54:51;;;;;;;7.37;2.10;;;26.00;99.90;;;;;;5010428;28;20449;-53
2021/06/20 06:57:19;;;;;;;8.60;2.93;;;26.10;99.90;;;;;;5009448;28;21069;-53
2021/06/20 06:59:46;;;;;;;7.97;2.63;;;26.00;99.90;;;;;;5009817;28;21008;-53
2021/06/20 07:02:13;;;;;;;9.20;2.40;;;26.20;99.90;;;;;;5009869;28;20449;-53
2021/06/20 07:04:40;;;;;;;5.20;2.20;;;26.10;99.90;;;;;;5010415;28;20529;-53
2021/06/20 07:07:09;;;;;;;5.30;2.07;;;26.20;99.90;;;;;;5008268;28;20469;-53
2021/06/20 07:09:36;;;;;;;4.73;3.03;;;26.40;99.90;;;;;;5009942;28;20531;-53
2021/06/20 07:12:03;;;;;;;8.47;2.57;;;26.20;99.90;;;;;;5012052;28;20446;-53
2021/06/20 07:14:34;;;;;;;7.33;2.40;;;26.30;99.90;;;;;;5011782;28;20449;-53
2021/06/20 07:17:02;;;;;;;6.23;2.53;;;26.60;99.90;;;;;;5010183;28;20479;-53
2021/06/20 07:19:29;;;;;;;7.97;2.80;;;26.70;99.90;;;;;;5011403;28;20528;-53
2021/06/20 07:21:56;;;;;;;5.77;2.70;;;26.60;99.90;;;;;;5011077;28;20496;-53
2021/06/20 07:24:24;;;;;;;7.33;2.83;;;26.20;99.90;;;;;;5012058;28;20512;-53
2021/06/20 07:26:51;;;;;;;6.07;2.30;;;26.40;99.90;;;;;;5011965;28;20469;-52
2021/06/20 07:29:18;;;;;;;8.03;2.60;;;26.80;99.90;;;;;;5011699;28;20454;-52
2021/06/20 07:31:45;;;;;;;3.07;2.17;;;26.80;99.90;;;;;;5011147;28;20813;-53
2021/06/20 07:34:12;;;;;;;5.63;2.17;;;26.50;99.90;;;;;;5011441;28;20576;-53
2021/06/20 07:36:39;;;;;;;6.20;2.37;;;26.40;99.90;;;;;;5011567;28;20478;-54
2021/06/20 07:39:07;;;;;;;5.93;2.73;;;26.20;99.90;;;;;;5011480;28;20465;-53
2021/06/20 07:41:35;;;;;;;6.37;2.27;;;26.00;99.90;;;;;;5010557;28;20508;-53
2021/06/20 07:44:02;;;;;;;7.50;2.33;;;26.00;99.90;;;;;;5000515;28;20454;-53
2021/06/20 07:46:29;;;;;;;6.37;2.23;;;26.20;99.90;;;;;;5006708;28;20540;-53
2021/06/20 07:48:56;;;;;;;9.70;2.40;;;25.50;99.90;;;;;;5002654;28;20515;-53
2021/06/20 07:51:23;;;;;;;10.43;3.50;;;25.30;99.90;;;;;;5004882;28;20485;-53
2021/06/20 07:53:50;;;;;;;6.23;2.60;;;25.40;99.90;;;;;;5009371;28;20446;-53
2021/06/20 07:56:17;;;;;;;5.87;2.40;;;25.50;99.90;;;;;;4993492;28;20513;-53
2021/06/20 07:58:45;;;;;;;6.70;2.17;;;25.50;99.90;;;;;;5010099;28;20522;-53
2021/06/20 08:01:12;;;;;;;8.13;2.70;;;25.10;99.90;;;;;;5009924;28;20448;-54
2021/06/20 08:03:39;;;;;;;4.90;2.10;;;25.10;99.90;;;;;;5010037;28;20910;-53
2021/06/20 08:06:06;;;;;;;8.43;2.60;;;25.00;99.90;;;;;;5008343;28;20469;-53
2021/06/20 08:08:33;;;;;;;5.50;2.13;;;25.10;99.90;;;;;;5010025;28;20446;-53
2021/06/20 08:11:02;;;;;;;11.00;2.97;;;25.20;99.90;;;;;;5011208;28;20539;-53
2021/06/20 08:13:29;;;;;;;8.43;3.07;;;25.00;99.90;;;;;;5013833;28;20493;-53
2021/06/20 08:15:58;;;;;;;20.77;3.07;;;25.00;99.90;;;;;;5014180;28;20461;-53
2021/06/20 08:18:25;;;;;;;8.93;2.33;;;24.80;99.90;;;;;;5013185;28;21891;-53
2021/06/20 08:20:52;;;;;;;7.43;2.73;;;25.10;99.90;;;;;;5013899;28;20488;-53
2021/06/20 08:23:19;;;;;;;6.67;2.73;;;25.10;99.90;;;;;;5013499;28;20442;-53
2021/06/20 08:25:46;;;;;;;4.53;2.70;;;25.00;99.90;;;;;;5013857;28;20920;-53
2021/06/20 08:28:13;;;;;;;11.53;2.93;;;25.00;99.90;;;;;;5013225;28;20458;-53
2021/06/20 08:30:39;;;;;;;5.60;2.80;;;24.90;99.90;;;;;;5013564;28;20473;-53
2021/06/20 08:33:08;;;;;;;8.63;2.73;;;24.90;99.90;;;;;;5013276;28;21297;-53
2021/06/20 08:35:35;;;;;;;8.70;2.80;;;24.90;99.90;;;;;;5013691;28;20955;-53
2021/06/20 08:38:02;;;;;;;8.03;3.00;;;25.00;99.90;;;;;;5012813;28;20511;-53
2021/06/20 08:40:29;;;;;;;15.57;2.80;;;25.00;99.90;;;;;;4995243;28;20877;-53
2021/06/20 08:42:58;;;;;;;12.33;3.07;;;25.00;99.90;;;;;;5002541;28;20445;-53
2021/06/20 08:45:25;;;;;;;8.17;2.37;;;25.10;99.90;;;;;;5013223;28;20437;-53
2021/06/20 08:47:52;;;;;;;10.67;2.80;;;25.30;99.90;;;;;;5012628;28;21028;-53
2021/06/20 08:50:20;;;;;;;9.33;3.67;;;25.20;99.90;;;;;;5013436;28;21002;-53
2021/06/20 08:52:48;;;;;;;6.90;3.40;;;25.00;99.90;;;;;;5013466;28;20442;-53
2021/06/20 08:55:15;;;;;;;8.93;2.93;;;25.00;99.90;;;;;;5005163;28;20446;-53
2021/06/20 08:57:46;;;;;;;9.10;3.33;;;25.20;99.90;;;;;;5031452;22;21011;-54
2021/06/20 09:00:16;;;;;;;14.97;3.50;;;25.50;99.90;;;;;;5012641;28;20486;-54
2021/06/20 09:02:43;;;;;;;12.73;3.13;;;25.50;99.90;;;;;;5013152;28;20445;-54
2021/06/20 09:05:14;;;;;;;10.67;3.33;;;25.40;99.90;;;;;;5009769;28;20438;-54
2021/06/20 09:07:44;;;;;;;8.20;3.17;;;25.70;99.90;;;;;;5012974;28;20544;-54
2021/06/20 09:10:15;;;;;;;17.70;3.50;;;26.00;99.90;;;;;;5004912;28;20565;-53
2021/06/20 09:12:47;;;;;;;9.13;3.63;;;26.10;99.90;;;;;;4994334;28;20546;-53
2021/06/20 09:15:16;;;;;;;8.73;3.20;;;26.50;99.90;;;;;;5003364;28;20456;-54
2021/06/20 09:17:50;;;;;;;6.87;3.30;;;26.10;99.90;;;;;;5012857;28;20532;-54
2021/06/20 09:20:17;;;;;;;8.43;3.43;;;25.90;99.90;;;;;;5012692;28;20442;-54
2021/06/20 09:22:57;;;;;;;13.50;3.90;;;25.80;99.90;;;;;;5012597;28;21021;-53
2021/06/20 09:25:29;;;;;;;9.13;3.20;;;25.60;99.90;;;;;;5011624;28;20457;-53
2021/06/20 09:27:57;;;;;;;10.40;3.60;;;25.60;99.90;;;;;;5013626;28;20469;-53
2021/06/20 09:30:26;;;;;;;8.07;3.30;;;25.70;99.90;;;;;;5013296;28;21061;-53
2021/06/20 09:32:54;;;;;;;15.53;3.87;;;25.80;99.90;;;;;;5013075;28;20462;-53
2021/06/20 09:35:21;;;;;;;14.47;4.40;;;26.10;99.90;;;;;;5013207;28;20536;-54
2021/06/20 09:37:52;;;;;;;14.70;3.87;;;26.10;99.90;;;;;;5013737;28;20527;-54
2021/06/20 09:40:23;;;;;;;15.40;3.63;;;26.00;99.90;;;;;;5013652;28;20450;-54
2021/06/20 09:42:51;;;;;;;14.30;3.87;;;26.40;99.90;;;;;;5012981;28;20954;-53
2021/06/20 09:45:32;;;;;;;8.80;3.70;;;26.50;99.90;;;;;;5012890;28;20511;-54
2021/06/20 09:48:00;;;;;;;10.27;3.80;;;26.50;99.90;;;;;;5013122;28;20477;-54
2021/06/20 09:50:38;;;;;;;12.20;3.87;;;26.40;99.90;;;;;;5013127;28;20487;-54
2021/06/20 09:53:06;;;;;;;11.73;3.97;;;26.40;99.90;;;;;;5004663;28;20441;-55
2021/06/20 09:55:35;;;;;;;12.37;4.87;;;26.70;99.90;;;;;;5003097;28;21013;-53
2021/06/20 09:58:04;;;;;;;11.87;4.40;;;27.00;99.90;;;;;;5011607;28;20481;-54
2021/06/20 10:00:42;;;;;;;12.03;4.17;;;27.20;99.90;;;;;;5009870;28;20442;-54
2021/06/20 10:03:22;;;;;;;19.27;4.67;;;27.20;99.90;;;;;;5011086;28;20861;-54
2021/06/20 10:05:51;;;;;;;18.83;4.60;;;27.10;99.90;;;;;;5011066;28;20457;-54
2021/06/20 10:08:18;;;;;;;12.80;3.90;;;27.10;99.90;;;;;;5011404;28;20453;-54
2021/06/20 10:10:46;;;;;;;19.57;4.17;;;27.60;99.90;;;;;;5011224;28;20488;-54
2021/06/20 10:13:13;;;;;;;10.80;4.80;;;28.10;99.90;;;;;;5006772;28;20511;-54
2021/06/20 10:15:40;;;;;;;15.53;4.80;;;28.50;99.90;;;;;;5010610;28;20450;-54
2021/06/20 10:18:10;;;;;;;13.83;5.60;;;28.60;99.90;;;;;;5010584;28;20840;-54
2021/06/20 10:20:37;;;;;;;19.13;5.73;;;28.20;99.90;;;;;;5010766;28;20446;-54
2021/06/20 10:23:05;;;;;;;11.10;5.07;;;28.50;99.90;;;;;;5005562;28;20508;-54
2021/06/20 10:25:37;;;;;;;12.60;4.63;;;28.80;99.90;;;;;;5002167;28;20516;-54
2021/06/20 10:28:10;;;;;;;13.97;4.80;;;28.80;99.90;;;;;;4994114;28;20478;-54
2021/06/20 10:30:37;;;;;;;15.97;4.40;;;28.70;99.90;;;;;;5006460;28;20592;-54
2021/06/20 10:33:11;;;;;;;17.27;4.80;;;28.80;99.90;;;;;;5011926;28;20507;-54
2021/06/20 10:35:39;;;;;;;16.50;5.47;;;28.40;99.90;;;;;;5012066;28;20536;-54
2021/06/20 10:38:06;;;;;;;16.87;4.80;;;28.30;99.90;;;;;;5011529;28;20469;-54
2021/06/20 10:40:36;;;;;;;11.73;4.50;;;28.40;99.90;;;;;;5011991;28;20543;-54
2021/06/20 10:43:16;;;;;;;17.57;5.57;;;28.70;99.90;;;;;;5012190;28;20450;-54
2021/06/20 10:45:44;;;;;;;23.67;6.20;;;28.50;99.90;;;;;;5012064;28;20449;-54
2021/06/20 10:48:16;;;;;;;19.50;5.37;;;28.50;99.90;;;;;;5011667;28;20457;-54
2021/06/20 10:50:47;;;;;;;18.93;5.43;;;27.90;99.90;;;;;;5011550;28;20478;-54
2021/06/20 10:53:15;;;;;;;20.23;7.13;;;27.70;99.90;;;;;;5011740;28;20956;-54
2021/06/20 10:55:46;;;;;;;16.10;5.90;;;27.40;99.90;;;;;;5011554;28;20453;-54
2021/06/20 10:58:19;;;;;;;13.33;5.47;;;27.70;99.90;;;;;;5011822;28;20469;-54
2021/06/20 11:00:47;;;;;;;13.47;5.53;;;28.50;99.90;;;;;;5009991;28;20931;-54
2021/06/20 11:03:15;;;;;;;38.03;16.33;;;29.10;99.90;;;;;;5011105;28;20548;-53
2021/06/20 11:05:48;;;;;;;21.77;7.97;;;29.20;99.90;;;;;;5011505;28;20983;-54
2021/06/20 11:08:32;;;;;;;27.40;11.10;;;29.20;99.90;;;;;;5012017;28;20441;-54
2021/06/20 11:11:16;;;;;;;20.27;6.10;;;29.80;99.90;;;;;;5009455;28;20908;-54
2021/06/20 11:13:47;;;;;;;23.07;6.27;;;30.30;99.90;;;;;;5011110;28;20556;-54
2021/06/20 11:16:23;;;;;;;25.27;6.23;;;30.90;99.90;;;;;;5011314;28;21189;-54
2021/06/20 11:19:04;;;;;;;17.97;6.10;;;30.80;99.90;;;;;;5011584;28;20499;-54
2021/06/20 11:21:31;;;;;;;21.83;6.40;;;30.20;99.90;;;;;;5011013;28;20453;-54
2021/06/20 11:23:58;;;;;;;15.90;5.33;;;30.30;99.90;;;;;;5010567;28;20527;-54
2021/06/20 11:26:25;;;;;;;15.87;6.00;;;30.50;99.90;;;;;;5011108;28;20515;-54
2021/06/20 11:29:01;;;;;;;20.07;7.23;;;30.70;99.90;;;;;;5011470;28;20457;-54
2021/06/20 11:31:28;;;;;;;15.90;6.33;;;31.00;99.90;;;;;;5008974;28;20539;-54
2021/06/20 11:33:56;;;;;;;15.73;6.60;;;30.80;99.90;;;;;;5006637;28;20940;-54
2021/06/20 11:36:26;;;;;;;15.70;5.53;;;30.30;99.90;;;;;;5009673;28;20490;-54
2021/06/20 11:38:53;;;;;;;15.93;5.70;;;30.20;99.90;;;;;;5009702;28;20495;-54
2021/06/20 11:41:23;;;;;;;15.30;5.57;;;30.00;99.90;;;;;;5004926;28;20451;-53
2021/06/20 11:44:01;;;;;;;12.87;6.03;;;30.20;99.90;;;;;;5002270;28;20453;-53
2021/06/20 11:46:33;;;;;;;19.80;5.37;;;29.70;99.90;;;;;;5012204;28;20467;-54
2021/06/20 11:49:02;;;;;;;14.53;6.50;;;29.60;99.90;;;;;;5011528;28;21008;-54
2021/06/20 11:51:34;;;;;;;13.67;5.83;;;29.70;99.90;;;;;;5006793;28;20494;-54
2021/06/20 11:54:14;;;;;;;20.53;6.63;;;29.30;99.90;;;;;;4995810;28;20471;-55
2021/06/20 11:56:43;;;;;;;18.93;6.20;;;28.90;99.90;;;;;;5003754;28;20484;-54
2021/06/20 11:59:11;;;;;;;24.57;6.20;;;28.90;99.90;;;;;;5010923;28;21290;-53
2021/06/20 12:01:41;;;;;;;18.60;5.63;;;29.00;99.90;;;;;;4995258;28;20454;-54
2021/06/20 12:04:09;;;;;;;16.20;5.70;;;29.50;99.90;;;;;;4998591;28;20442;-54
2021/06/20 12:06:39;;;;;;;22.80;6.80;;;28.90;99.90;;;;;;5014138;28;20465;-54
2021/06/20 12:09:08;;;;;;;21.03;6.47;;;29.00;99.90;;;;;;5013497;28;20445;-54
2021/06/20 12:11:39;;;;;;;27.77;5.93;;;29.40;99.90;;;;;;5012856;28;21013;-54
2021/06/20 12:14:08;;;;;;;22.53;6.37;;;29.60;99.90;;;;;;5013495;28;20507;-54
2021/06/20 12:16:47;;;;;;;17.00;6.37;;;29.30;99.90;;;;;;5009935;28;20473;-54
2021/06/20 12:19:15;;;;;;;25.40;5.93;;;29.10;99.90;;;;;;5013549;28;20437;-54
2021/06/20 12:21:43;;;;;;;17.10;6.17;;;29.40;99.90;;;;;;5012564;28;20521;-53
2021/06/20 12:24:13;;;;;;;22.00;6.50;;;29.70;99.90;;;;;;5013100;28;20449;-54
2021/06/20 12:26:48;;;;;;;26.23;7.13;;;29.70;99.90;;;;;;5013014;28;20467;-54
2021/06/20 12:29:16;;;;;;;17.00;6.70;;;29.60;99.90;;;;;;5013063;28;20528;-54
2021/06/20 12:31:57;;;;;;;25.57;7.40;;;29.40;99.90;;;;;;5012450;28;20477;-53
2021/06/20 12:34:24;;;;;;;21.90;6.17;;;29.40;99.90;;;;;;5012856;28;20445;-54
2021/06/20 12:37:01;;;;;;;17.07;6.20;;;29.40;99.90;;;;;;5012909;28;20560;-53
2021/06/20 12:39:41;;;;;;;24.83;6.60;;;29.20;99.90;;;;;;5012795;28;20520;-54
2021/06/20 12:42:08;;;;;;;20.43;6.67;;;29.40;99.90;;;;;;4997839;28;20501;-54
2021/06/20 12:44:43;;;;;;;17.80;6.80;;;29.60;99.90;;;;;;5011849;28;20900;-53
2021/06/20 12:47:13;;;;;;;22.40;6.60;;;29.50;99.90;;;;;;5006346;28;20469;-54
2021/06/20 12:49:44;;;;;;;23.60;7.30;;;29.10;99.90;;;;;;4994843;28;20454;-54
2021/06/20 12:52:11;;;;;;;26.73;7.80;;;29.10;99.90;;;;;;5009575;28;20477;-53